Sardinia Regina — IBMS — position and weather

sailwx.info

Track history (hours):
 
Tides and Currents Weather Stations Pressure Air Temp Water Temp Dewpoint Dewpoint Depression Visibility Wind Speed Wind Dir Waves Ship Positions

Sardinia Regina

Last reported at 2017-Jan-21 22:15 UTC. Time now 2017-Jan-22 16:14 UTC.
Position N 42°60' E 009°58'.

Length 146 m; draft 5 m.

Type: Passenger vessel. MMSI: 247079000.

Date/timePositionNaut miles runAvg speedWind from/ knotsBaromVisibWave heightAir tempDewpointWater temp
2017-Jan-21 22:15N 42°60' E 009°58'1216.8
2017-Jan-21 21:33N 43°11' E 010°03'1717.2
2017-Jan-21 20:33N 43°27' E 010°10'8 8.2
2017-Jan-21 19:31N 43°33' E 010°18'0 0.0
2017-Jan-21 18:31N 43°33' E 010°18'0 0.0
2017-Jan-21 17:33N 43°33' E 010°18'1110.7
2017-Jan-21 16:33N 43°24' E 010°11'1615.8
2017-Jan-21 15:33N 43°09' E 010°02'19 3.5
2017-Jan-21 10:04N 42°54' E 009°48'1315.4
2017-Jan-21 09:14N 43°03' E 009°59'1116.0
2017-Jan-21 08:34N 43°14' E 010°03'1615.7
2017-Jan-21 07:34N 43°28' E 010°11'7 7.1
2017-Jan-21 06:32N 43°33' E 010°18'0 0.4
2017-Jan-21 05:33N 43°33' E 010°18'1312.7
2017-Jan-21 04:34N 43°22' E 010°10'14 0.4
2017-Jan-19 21:33N 43°08' E 010°04'1817.7
2017-Jan-19 20:33N 43°26' E 010°10'10 9.4
2017-Jan-19 19:33N 43°33' E 010°18'0 0.0
2017-Jan-19 18:33N 43°33' E 010°18'0 0.0
2017-Jan-19 17:33N 43°33' E 010°18'0 0.0
2017-Jan-19 16:33N 43°33' E 010°18'0 0.0
2017-Jan-19 15:33N 43°33' E 010°18'0 0.0
2017-Jan-19 14:33N 43°33' E 010°18'0 0.0
2017-Jan-19 13:18N 43°33' E 010°18'0 0.0
2017-Jan-19 12:33N 43°33' E 010°18'0 0.0
2017-Jan-19 11:33N 43°33' E 010°18'0 0.0
2017-Jan-19 10:30N 43°33' E 010°18'0 0.0
2017-Jan-19 09:33N 43°33' E 010°18'0 0.0
2017-Jan-19 08:33N 43°33' E 010°18'0 0.0
2017-Jan-19 07:27N 43°33' E 010°18'3 3.4
2017-Jan-19 06:33N 43°31' E 010°15'1716.6
2017-Jan-19 05:33N 43°15' E 010°08'13 0.4
2017-Jan-17 22:28N 43°03' E 010°02'1516.4
2017-Jan-17 21:34N 43°17' E 010°07'1615.8
2017-Jan-17 20:33N 43°32' E 010°15'2 2.4
2017-Jan-17 19:31N 43°33' E 010°18'0 0.0
2017-Jan-17 18:31N 43°33' E 010°18'0 0.0
2017-Jan-17 17:31N 43°33' E 010°18'0 0.0
2017-Jan-17 16:31N 43°33' E 010°18'0 0.0
2017-Jan-17 15:31N 43°33' E 010°18'0 0.0
2017-Jan-17 14:31N 43°33' E 010°18'0 0.0
2017-Jan-17 13:31N 43°33' E 010°18'0 0.0
2017-Jan-17 12:31N 43°33' E 010°18'0 0.0
2017-Jan-17 11:31N 43°33' E 010°18'0 0.0
2017-Jan-17 10:31N 43°33' E 010°18'0 0.0
2017-Jan-17 09:31N 43°33' E 010°18'0 0.0
2017-Jan-17 08:31N 43°33' E 010°18'0 0.0
2017-Jan-17 07:31N 43°33' E 010°18'3 3.2
2017-Jan-17 06:33N 43°31' E 010°16'1514.7
2017-Jan-17 05:33N 43°17' E 010°10'9 0.3
2017-Jan-15 21:33N 43°08' E 010°04'1817.7
2017-Jan-15 20:33N 43°25' E 010°10'10 9.4
2017-Jan-15 19:32N 43°33' E 010°18'0 0.0
2017-Jan-15 18:32N 43°33' E 010°18'2 1.6
2017-Jan-15 17:33N 43°32' E 010°17'1615.6
2017-Jan-15 16:33N 43°18' E 010°07'29 5.2
2017-Jan-15 11:03N 42°53' E 009°47'916.3
2017-Jan-15 10:29N 42°59' E 009°57'1516.2
2017-Jan-15 09:33N 43°14' E 010°04'1716.7
2017-Jan-15 08:33N 43°29' E 010°12'6 5.7
2017-Jan-15 07:32N 43°33' E 010°18'2 2.0
2017-Jan-15 06:33N 43°32' E 010°16'1413.7
2017-Jan-15 05:33N 43°19' E 010°10'18 0.6
2017-Jan-13 23:31N 43°02' E 010°02'1516.1
2017-Jan-13 22:33N 43°16' E 010°10'1515.4
2017-Jan-13 21:33N 43°31' E 010°15'3 3.0
2017-Jan-13 20:32N 43°33' E 010°18'0 0.0
2017-Jan-13 19:33N 43°33' E 010°18'9 9.2
2017-Jan-13 18:34N 43°27' E 010°09'1615.6
2017-Jan-13 17:33N 43°16' E 009°53'22 3.6
2017-Jan-13 11:27N 42°55' E 009°48'1314.3
2017-Jan-13 10:33N 43°05' E 009°58'1212.2
2017-Jan-13 09:33N 43°16' E 010°05'1110.9
2017-Jan-13 08:33N 43°26' E 010°11'9 8.4
2017-Jan-13 07:32N 43°33' E 010°18'0 0.0
2017-Jan-13 06:32N 43°33' E 010°18'3 2.9
2017-Jan-13 05:33N 43°31' E 010°16'1616.1
2017-Jan-13 04:33N 43°20' E 009°60'  
Track history (hours):
 
Tides and Currents Weather Stations Pressure Air Temp Water Temp Dewpoint Dewpoint Depression Visibility Wind Speed Wind Dir Waves Ship Positions

Sardinia Regina

Last reported at 2017-Jan-21 22:15 UTC. Time now 2017-Jan-22 16:14 UTC.
Position N 42°60' E 009°58'.

Length 146 m; draft 5 m.

Type: Passenger vessel. MMSI: 247079000.

Date/timePositionNaut miles runAvg speedWind from/ knotsBaromVisibWave heightAir tempDewpointWater temp
2017-Jan-21 22:15N 42°60' E 009°58'1216.8
2017-Jan-21 21:33N 43°11' E 010°03'1717.2
2017-Jan-21 20:33N 43°27' E 010°10'8 8.2
2017-Jan-21 19:31N 43°33' E 010°18'0 0.0
2017-Jan-21 18:31N 43°33' E 010°18'0 0.0
2017-Jan-21 17:33N 43°33' E 010°18'1110.7
2017-Jan-21 16:33N 43°24' E 010°11'1615.8
2017-Jan-21 15:33N 43°09' E 010°02'19 3.5
2017-Jan-21 10:04N 42°54' E 009°48'1315.4
2017-Jan-21 09:14N 43°03' E 009°59'1116.0
2017-Jan-21 08:34N 43°14' E 010°03'1615.7
2017-Jan-21 07:34N 43°28' E 010°11'7 7.1
2017-Jan-21 06:32N 43°33' E 010°18'0 0.4
2017-Jan-21 05:33N 43°33' E 010°18'1312.7
2017-Jan-21 04:34N 43°22' E 010°10'14 0.4
2017-Jan-19 21:33N 43°08' E 010°04'1817.7
2017-Jan-19 20:33N 43°26' E 010°10'10 9.4
2017-Jan-19 19:33N 43°33' E 010°18'0 0.0
2017-Jan-19 18:33N 43°33' E 010°18'0 0.0
2017-Jan-19 17:33N 43°33' E 010°18'0 0.0
2017-Jan-19 16:33N 43°33' E 010°18'0 0.0
2017-Jan-19 15:33N 43°33' E 010°18'0 0.0
2017-Jan-19 14:33N 43°33' E 010°18'0 0.0
2017-Jan-19 13:18N 43°33' E 010°18'0 0.0
2017-Jan-19 12:33N 43°33' E 010°18'0 0.0
2017-Jan-19 11:33N 43°33' E 010°18'0 0.0
2017-Jan-19 10:30N 43°33' E 010°18'0 0.0
2017-Jan-19 09:33N 43°33' E 010°18'0 0.0
2017-Jan-19 08:33N 43°33' E 010°18'0 0.0
2017-Jan-19 07:27N 43°33' E 010°18'3 3.4
2017-Jan-19 06:33N 43°31' E 010°15'1716.6
2017-Jan-19 05:33N 43°15' E 010°08'13 0.4
2017-Jan-17 22:28N 43°03' E 010°02'1516.4
2017-Jan-17 21:34N 43°17' E 010°07'1615.8
2017-Jan-17 20:33N 43°32' E 010°15'2 2.4
2017-Jan-17 19:31N 43°33' E 010°18'0 0.0
2017-Jan-17 18:31N 43°33' E 010°18'0 0.0
2017-Jan-17 17:31N 43°33' E 010°18'0 0.0
2017-Jan-17 16:31N 43°33' E 010°18'0 0.0
2017-Jan-17 15:31N 43°33' E 010°18'0 0.0
2017-Jan-17 14:31N 43°33' E 010°18'0 0.0
2017-Jan-17 13:31N 43°33' E 010°18'0 0.0
2017-Jan-17 12:31N 43°33' E 010°18'0 0.0
2017-Jan-17 11:31N 43°33' E 010°18'0 0.0
2017-Jan-17 10:31N 43°33' E 010°18'0 0.0
2017-Jan-17 09:31N 43°33' E 010°18'0 0.0
2017-Jan-17 08:31N 43°33' E 010°18'0 0.0
2017-Jan-17 07:31N 43°33' E 010°18'3 3.2
2017-Jan-17 06:33N 43°31' E 010°16'1514.7
2017-Jan-17 05:33N 43°17' E 010°10'9 0.3
2017-Jan-15 21:33N 43°08' E 010°04'1817.7
2017-Jan-15 20:33N 43°25' E 010°10'10 9.4
2017-Jan-15 19:32N 43°33' E 010°18'0 0.0
2017-Jan-15 18:32N 43°33' E 010°18'2 1.6
2017-Jan-15 17:33N 43°32' E 010°17'1615.6
2017-Jan-15 16:33N 43°18' E 010°07'29 5.2
2017-Jan-15 11:03N 42°53' E 009°47'916.3
2017-Jan-15 10:29N 42°59' E 009°57'1516.2
2017-Jan-15 09:33N 43°14' E 010°04'1716.7
2017-Jan-15 08:33N 43°29' E 010°12'6 5.7
2017-Jan-15 07:32N 43°33' E 010°18'2 2.0
2017-Jan-15 06:33N 43°32' E 010°16'1413.7
2017-Jan-15 05:33N 43°19' E 010°10'18 0.6
2017-Jan-13 23:31N 43°02' E 010°02'1516.1
2017-Jan-13 22:33N 43°16' E 010°10'1515.4
2017-Jan-13 21:33N 43°31' E 010°15'3 3.0
2017-Jan-13 20:32N 43°33' E 010°18'0 0.0
2017-Jan-13 19:33N 43°33' E 010°18'9 9.2
2017-Jan-13 18:34N 43°27' E 010°09'1615.6
2017-Jan-13 17:33N 43°16' E 009°53'22 3.6
2017-Jan-13 11:27N 42°55' E 009°48'1314.3
2017-Jan-13 10:33N 43°05' E 009°58'1212.2
2017-Jan-13 09:33N 43°16' E 010°05'1110.9
2017-Jan-13 08:33N 43°26' E 010°11'9 8.4
2017-Jan-13 07:32N 43°33' E 010°18'0 0.0
2017-Jan-13 06:32N 43°33' E 010°18'3 2.9
2017-Jan-13 05:33N 43°31' E 010°16'1616.1
2017-Jan-13 04:33N 43°20' E 009°60'  

Dump ship's entire track history